sensor_id;sensor_type;location;lat;lon;timestamp;temperature;humidity
18446;DHT22;9352;50.888;4.466;2022-10-22T00:00:06;14.80;99.90
18446;DHT22;9352;50.888;4.466;2022-10-22T00:02:34;14.80;99.90
18446;DHT22;9352;50.888;4.466;2022-10-22T00:05:01;14.80;99.90
18446;DHT22;9352;50.888;4.466;2022-10-22T00:07:29;14.80;99.90
18446;DHT22;9352;50.888;4.466;2022-10-22T00:09:58;14.80;99.90
18446;DHT22;9352;50.888;4.466;2022-10-22T00:12:26;14.90;99.90
18446;DHT22;9352;50.888;4.466;2022-10-22T00:14:53;14.90;99.90
18446;DHT22;9352;50.888;4.466;2022-10-22T00:17:20;14.90;99.90
18446;DHT22;9352;50.888;4.466;2022-10-22T00:19:47;14.90;99.90
18446;DHT22;9352;50.888;4.466;2022-10-22T00:22:14;14.90;99.90
18446;DHT22;9352;50.888;4.466;2022-10-22T00:24:42;14.90;99.90
18446;DHT22;9352;50.888;4.466;2022-10-22T00:27:10;15.00;99.90
18446;DHT22;9352;50.888;4.466;2022-10-22T00:29:37;15.00;99.90
18446;DHT22;9352;50.888;4.466;2022-10-22T00:32:05;15.00;99.90
18446;DHT22;9352;50.888;4.466;2022-10-22T00:34:32;15.00;99.90
18446;DHT22;9352;50.888;4.466;2022-10-22T00:36:59;14.90;99.90
18446;DHT22;9352;50.888;4.466;2022-10-22T00:39:27;15.00;99.90
18446;DHT22;9352;50.888;4.466;2022-10-22T00:41:56;14.90;99.90
18446;DHT22;9352;50.888;4.466;2022-10-22T00:45:03;15.00;99.90
18446;DHT22;9352;50.888;4.466;2022-10-22T00:47:32;15.00;99.90
18446;DHT22;9352;50.888;4.466;2022-10-22T00:50:01;15.00;99.90
18446;DHT22;9352;50.888;4.466;2022-10-22T00:52:29;14.90;99.90
18446;DHT22;9352;50.888;4.466;2022-10-22T00:54:56;15.00;99.90
18446;DHT22;9352;50.888;4.466;2022-10-22T00:57:25;14.90;99.90
18446;DHT22;9352;50.888;4.466;2022-10-22T00:59:53;14.90;99.90
18446;DHT22;9352;50.888;4.466;2022-10-22T01:02:21;14.90;99.90
18446;DHT22;9352;50.888;4.466;2022-10-22T01:04:48;14.90;99.90
18446;DHT22;9352;50.888;4.466;2022-10-22T01:07:17;14.90;99.90
18446;DHT22;9352;50.888;4.466;2022-10-22T01:09:52;14.90;99.90
18446;DHT22;9352;50.888;4.466;2022-10-22T01:12:30;14.90;99.90
18446;DHT22;9352;50.888;4.466;2022-10-22T01:15:17;14.90;99.90
18446;DHT22;9352;50.888;4.466;2022-10-22T01:17:53;14.90;99.90
18446;DHT22;9352;50.888;4.466;2022-10-22T01:20:45;14.90;99.90
18446;DHT22;9352;50.888;4.466;2022-10-22T01:26:10;14.90;99.90
18446;DHT22;9352;50.888;4.466;2022-10-22T01:28:56;14.90;99.90
18446;DHT22;9352;50.888;4.466;2022-10-22T01:31:26;14.90;99.90
18446;DHT22;9352;50.888;4.466;2022-10-22T01:33:55;14.90;99.90
18446;DHT22;9352;50.888;4.466;2022-10-22T01:36:22;14.80;99.90
18446;DHT22;9352;50.888;4.466;2022-10-22T01:38:50;14.90;99.90
18446;DHT22;9352;50.888;4.466;2022-10-22T01:41:18;14.90;99.90
18446;DHT22;9352;50.888;4.466;2022-10-22T01:43:45;14.90;99.90
18446;DHT22;9352;50.888;4.466;2022-10-22T01:46:13;14.90;99.90
18446;DHT22;9352;50.888;4.466;2022-10-22T01:48:48;14.80;99.90
18446;DHT22;9352;50.888;4.466;2022-10-22T01:51:29;14.90;99.90
18446;DHT22;9352;50.888;4.466;2022-10-22T01:54:06;14.80;99.90
18446;DHT22;9352;50.888;4.466;2022-10-22T01:56:45;14.80;99.90
18446;DHT22;9352;50.888;4.466;2022-10-22T01:59:28;14.80;99.90
18446;DHT22;9352;50.888;4.466;2022-10-22T02:02:05;14.80;99.90
18446;DHT22;9352;50.888;4.466;2022-10-22T02:04:41;14.80;99.90
18446;DHT22;9352;50.888;4.466;2022-10-22T02:07:11;14.80;99.90
18446;DHT22;9352;50.888;4.466;2022-10-22T02:09:41;14.70;99.90
18446;DHT22;9352;50.888;4.466;2022-10-22T02:12:09;14.80;99.90
18446;DHT22;9352;50.888;4.466;2022-10-22T02:14:40;14.70;99.90
18446;DHT22;9352;50.888;4.466;2022-10-22T02:17:12;14.70;99.90
18446;DHT22;9352;50.888;4.466;2022-10-22T02:19:45;14.70;99.90
18446;DHT22;9352;50.888;4.466;2022-10-22T02:22:13;14.70;99.90
18446;DHT22;9352;50.888;4.466;2022-10-22T02:24:40;14.70;99.90
18446;DHT22;9352;50.888;4.466;2022-10-22T02:27:11;14.70;99.90
18446;DHT22;9352;50.888;4.466;2022-10-22T02:29:44;14.60;99.90
18446;DHT22;9352;50.888;4.466;2022-10-22T02:32:17;14.60;99.90
18446;DHT22;9352;50.888;4.466;2022-10-22T02:34:45;14.60;99.90
18446;DHT22;9352;50.888;4.466;2022-10-22T02:37:13;14.60;99.90
18446;DHT22;9352;50.888;4.466;2022-10-22T02:39:40;14.60;99.90
18446;DHT22;9352;50.888;4.466;2022-10-22T02:42:08;14.60;99.90
18446;DHT22;9352;50.888;4.466;2022-10-22T02:44:36;14.50;99.90
18446;DHT22;9352;50.888;4.466;2022-10-22T02:47:03;14.60;99.90
18446;DHT22;9352;50.888;4.466;2022-10-22T02:49:32;14.60;99.90
18446;DHT22;9352;50.888;4.466;2022-10-22T02:51:58;14.50;99.90
18446;DHT22;9352;50.888;4.466;2022-10-22T02:54:25;14.50;99.90
18446;DHT22;9352;50.888;4.466;2022-10-22T02:56:52;14.50;99.90
18446;DHT22;9352;50.888;4.466;2022-10-22T02:59:19;14.50;99.90
18446;DHT22;9352;50.888;4.466;2022-10-22T03:01:48;14.50;99.90
18446;DHT22;9352;50.888;4.466;2022-10-22T03:04:15;14.50;99.90
18446;DHT22;9352;50.888;4.466;2022-10-22T03:06:43;14.50;99.90
18446;DHT22;9352;50.888;4.466;2022-10-22T03:09:13;14.50;99.90
18446;DHT22;9352;50.888;4.466;2022-10-22T03:11:40;14.40;99.90
18446;DHT22;9352;50.888;4.466;2022-10-22T03:14:07;14.40;99.90
18446;DHT22;9352;50.888;4.466;2022-10-22T03:16:34;14.40;99.90
18446;DHT22;9352;50.888;4.466;2022-10-22T03:19:01;14.40;99.90
18446;DHT22;9352;50.888;4.466;2022-10-22T03:21:32;14.40;99.90
18446;DHT22;9352;50.888;4.466;2022-10-22T03:24:04;14.40;99.90
18446;DHT22;9352;50.888;4.466;2022-10-22T03:26:32;14.40;99.90
18446;DHT22;9352;50.888;4.466;2022-10-22T03:29:00;14.40;99.90
18446;DHT22;9352;50.888;4.466;2022-10-22T03:31:27;14.40;99.90
18446;DHT22;9352;50.888;4.466;2022-10-22T03:33:54;14.40;99.90
18446;DHT22;9352;50.888;4.466;2022-10-22T03:36:21;14.40;99.90
18446;DHT22;9352;50.888;4.466;2022-10-22T03:38:48;14.40;99.90
18446;DHT22;9352;50.888;4.466;2022-10-22T03:41:16;14.50;99.90
18446;DHT22;9352;50.888;4.466;2022-10-22T03:43:43;14.50;99.90
18446;DHT22;9352;50.888;4.466;2022-10-22T03:46:14;14.50;99.90
18446;DHT22;9352;50.888;4.466;2022-10-22T03:48:41;14.60;99.90
18446;DHT22;9352;50.888;4.466;2022-10-22T03:51:08;14.60;99.90
18446;DHT22;9352;50.888;4.466;2022-10-22T03:53:35;14.60;99.90
18446;DHT22;9352;50.888;4.466;2022-10-22T03:56:02;14.60;99.90
18446;DHT22;9352;50.888;4.466;2022-10-22T03:58:34;14.70;99.90
18446;DHT22;9352;50.888;4.466;2022-10-22T04:01:04;14.70;99.90
18446;DHT22;9352;50.888;4.466;2022-10-22T04:03:31;14.70;99.90
18446;DHT22;9352;50.888;4.466;2022-10-22T04:06:00;14.70;99.90
18446;DHT22;9352;50.888;4.466;2022-10-22T04:08:27;14.60;99.90
18446;DHT22;9352;50.888;4.466;2022-10-22T04:10:54;14.60;99.90
18446;DHT22;9352;50.888;4.466;2022-10-22T04:13:21;14.60;99.90
18446;DHT22;9352;50.888;4.466;2022-10-22T04:15:49;14.60;99.90
18446;DHT22;9352;50.888;4.466;2022-10-22T04:18:17;14.50;99.90
18446;DHT22;9352;50.888;4.466;2022-10-22T04:20:44;14.50;99.90
18446;DHT22;9352;50.888;4.466;2022-10-22T04:23:11;14.50;99.90
18446;DHT22;9352;50.888;4.466;2022-10-22T04:25:38;14.50;99.90
18446;DHT22;9352;50.888;4.466;2022-10-22T04:28:06;14.50;99.90
18446;DHT22;9352;50.888;4.466;2022-10-22T04:30:33;14.40;99.90
18446;DHT22;9352;50.888;4.466;2022-10-22T04:33:02;14.50;99.90
18446;DHT22;9352;50.888;4.466;2022-10-22T04:35:29;14.40;99.90
18446;DHT22;9352;50.888;4.466;2022-10-22T04:37:56;14.50;99.90
18446;DHT22;9352;50.888;4.466;2022-10-22T04:40:22;14.50;99.90
18446;DHT22;9352;50.888;4.466;2022-10-22T04:42:49;14.50;99.90
18446;DHT22;9352;50.888;4.466;2022-10-22T04:45:16;14.50;99.90
18446;DHT22;9352;50.888;4.466;2022-10-22T04:47:43;14.50;99.90
18446;DHT22;9352;50.888;4.466;2022-10-22T04:50:11;14.50;99.90
18446;DHT22;9352;50.888;4.466;2022-10-22T04:52:38;14.50;99.90
18446;DHT22;9352;50.888;4.466;2022-10-22T04:55:05;14.50;99.90
18446;DHT22;9352;50.888;4.466;2022-10-22T04:57:35;14.60;99.90
18446;DHT22;9352;50.888;4.466;2022-10-22T05:00:02;14.60;99.90
18446;DHT22;9352;50.888;4.466;2022-10-22T05:02:29;14.60;99.90
18446;DHT22;9352;50.888;4.466;2022-10-22T05:04:56;14.80;99.90
18446;DHT22;9352;50.888;4.466;2022-10-22T05:07:24;14.80;99.90
18446;DHT22;9352;50.888;4.466;2022-10-22T05:09:52;14.90;99.90
18446;DHT22;9352;50.888;4.466;2022-10-22T05:12:19;15.00;99.90
18446;DHT22;9352;50.888;4.466;2022-10-22T05:14:46;15.10;99.90
18446;DHT22;9352;50.888;4.466;2022-10-22T05:17:13;15.10;99.90
18446;DHT22;9352;50.888;4.466;2022-10-22T05:19:40;15.10;99.90
18446;DHT22;9352;50.888;4.466;2022-10-22T05:22:06;15.30;99.90
18446;DHT22;9352;50.888;4.466;2022-10-22T05:24:35;15.30;99.90
18446;DHT22;9352;50.888;4.466;2022-10-22T05:27:02;15.30;99.90
18446;DHT22;9352;50.888;4.466;2022-10-22T05:29:29;15.30;99.90
18446;DHT22;9352;50.888;4.466;2022-10-22T05:31:56;15.40;99.90
18446;DHT22;9352;50.888;4.466;2022-10-22T05:34:23;15.40;99.90
18446;DHT22;9352;50.888;4.466;2022-10-22T05:36:50;15.50;99.90
18446;DHT22;9352;50.888;4.466;2022-10-22T05:39:17;15.50;99.90
18446;DHT22;9352;50.888;4.466;2022-10-22T05:41:45;15.60;99.90
18446;DHT22;9352;50.888;4.466;2022-10-22T05:44:12;15.60;99.90
18446;DHT22;9352;50.888;4.466;2022-10-22T05:46:39;15.60;99.90
18446;DHT22;9352;50.888;4.466;2022-10-22T05:49:10;15.60;99.90
18446;DHT22;9352;50.888;4.466;2022-10-22T05:51:37;15.70;99.90
18446;DHT22;9352;50.888;4.466;2022-10-22T05:54:06;15.70;99.90
18446;DHT22;9352;50.888;4.466;2022-10-22T05:56:34;15.70;99.90
18446;DHT22;9352;50.888;4.466;2022-10-22T05:59:03;15.70;99.90
18446;DHT22;9352;50.888;4.466;2022-10-22T06:01:31;15.70;99.90
18446;DHT22;9352;50.888;4.466;2022-10-22T06:04:02;15.70;99.90
18446;DHT22;9352;50.888;4.466;2022-10-22T06:06:32;15.60;99.90
18446;DHT22;9352;50.888;4.466;2022-10-22T06:09:02;15.50;99.90
18446;DHT22;9352;50.888;4.466;2022-10-22T06:11:29;15.40;99.90
18446;DHT22;9352;50.888;4.466;2022-10-22T06:13:56;15.50;99.90
18446;DHT22;9352;50.888;4.466;2022-10-22T06:16:27;15.40;99.90
18446;DHT22;9352;50.888;4.466;2022-10-22T06:18:54;15.50;99.90
18446;DHT22;9352;50.888;4.466;2022-10-22T06:21:20;15.60;99.90
18446;DHT22;9352;50.888;4.466;2022-10-22T06:23:47;15.60;99.90
18446;DHT22;9352;50.888;4.466;2022-10-22T06:26:14;15.60;99.90
18446;DHT22;9352;50.888;4.466;2022-10-22T06:28:42;15.60;99.90
18446;DHT22;9352;50.888;4.466;2022-10-22T06:31:09;15.60;99.90
18446;DHT22;9352;50.888;4.466;2022-10-22T06:33:37;15.60;99.90
18446;DHT22;9352;50.888;4.466;2022-10-22T06:36:08;15.60;99.90
18446;DHT22;9352;50.888;4.466;2022-10-22T06:38:36;15.60;99.90
18446;DHT22;9352;50.888;4.466;2022-10-22T06:41:05;15.60;99.90
18446;DHT22;9352;50.888;4.466;2022-10-22T06:43:32;15.70;99.90
18446;DHT22;9352;50.888;4.466;2022-10-22T06:45:59;15.70;99.90
18446;DHT22;9352;50.888;4.466;2022-10-22T06:48:26;15.70;99.90
18446;DHT22;9352;50.888;4.466;2022-10-22T06:50:55;15.70;99.90
18446;DHT22;9352;50.888;4.466;2022-10-22T06:53:22;15.70;99.90
18446;DHT22;9352;50.888;4.466;2022-10-22T06:55:49;15.80;99.90
18446;DHT22;9352;50.888;4.466;2022-10-22T06:58:16;15.80;99.90
18446;DHT22;9352;50.888;4.466;2022-10-22T07:00:42;15.80;99.90
18446;DHT22;9352;50.888;4.466;2022-10-22T07:03:11;15.80;99.90
18446;DHT22;9352;50.888;4.466;2022-10-22T07:05:39;15.90;99.90
18446;DHT22;9352;50.888;4.466;2022-10-22T07:08:07;15.90;99.90
18446;DHT22;9352;50.888;4.466;2022-10-22T07:10:36;16.00;99.90
18446;DHT22;9352;50.888;4.466;2022-10-22T07:13:03;16.00;99.90
18446;DHT22;9352;50.888;4.466;2022-10-22T07:15:30;16.00;99.90
18446;DHT22;9352;50.888;4.466;2022-10-22T07:17:57;16.10;99.90
18446;DHT22;9352;50.888;4.466;2022-10-22T07:20:24;16.20;99.90
18446;DHT22;9352;50.888;4.466;2022-10-22T07:22:51;16.20;99.90
18446;DHT22;9352;50.888;4.466;2022-10-22T07:25:19;16.20;99.90
18446;DHT22;9352;50.888;4.466;2022-10-22T07:27:46;16.20;99.90
18446;DHT22;9352;50.888;4.466;2022-10-22T07:30:13;16.30;99.90
18446;DHT22;9352;50.888;4.466;2022-10-22T07:32:40;16.30;99.90
18446;DHT22;9352;50.888;4.466;2022-10-22T07:35:07;16.30;99.90
18446;DHT22;9352;50.888;4.466;2022-10-22T07:37:34;16.30;99.90
18446;DHT22;9352;50.888;4.466;2022-10-22T07:40:01;16.30;99.90
18446;DHT22;9352;50.888;4.466;2022-10-22T07:42:29;16.40;99.90
18446;DHT22;9352;50.888;4.466;2022-10-22T07:44:56;16.50;99.90
18446;DHT22;9352;50.888;4.466;2022-10-22T07:47:23;16.60;99.90
18446;DHT22;9352;50.888;4.466;2022-10-22T07:49:50;16.70;99.90
18446;DHT22;9352;50.888;4.466;2022-10-22T07:52:17;16.80;99.90
18446;DHT22;9352;50.888;4.466;2022-10-22T07:54:44;16.80;99.90
18446;DHT22;9352;50.888;4.466;2022-10-22T07:57:10;16.80;99.90
18446;DHT22;9352;50.888;4.466;2022-10-22T07:59:39;16.90;99.90
18446;DHT22;9352;50.888;4.466;2022-10-22T08:02:06;17.00;99.90
18446;DHT22;9352;50.888;4.466;2022-10-22T08:04:33;17.00;99.90
18446;DHT22;9352;50.888;4.466;2022-10-22T08:07:00;17.10;99.90
18446;DHT22;9352;50.888;4.466;2022-10-22T08:09:26;17.10;99.90
18446;DHT22;9352;50.888;4.466;2022-10-22T08:11:53;17.20;99.90
18446;DHT22;9352;50.888;4.466;2022-10-22T08:14:20;17.20;99.90
18446;DHT22;9352;50.888;4.466;2022-10-22T08:16:48;17.40;99.90
18446;DHT22;9352;50.888;4.466;2022-10-22T08:19:15;17.40;99.90
18446;DHT22;9352;50.888;4.466;2022-10-22T08:21:43;17.40;99.90
18446;DHT22;9352;50.888;4.466;2022-10-22T08:24:11;17.50;99.90
18446;DHT22;9352;50.888;4.466;2022-10-22T08:26:38;17.50;99.90
18446;DHT22;9352;50.888;4.466;2022-10-22T08:29:05;17.50;99.90
18446;DHT22;9352;50.888;4.466;2022-10-22T08:31:32;17.50;99.90
18446;DHT22;9352;50.888;4.466;2022-10-22T08:34:01;17.50;99.90
18446;DHT22;9352;50.888;4.466;2022-10-22T08:36:30;17.50;99.90
18446;DHT22;9352;50.888;4.466;2022-10-22T08:38:57;17.50;99.90
18446;DHT22;9352;50.888;4.466;2022-10-22T08:41:24;17.50;99.90
18446;DHT22;9352;50.888;4.466;2022-10-22T08:44:09;17.50;99.90
18446;DHT22;9352;50.888;4.466;2022-10-22T08:46:51;17.60;99.90
18446;DHT22;9352;50.888;4.466;2022-10-22T08:49:26;17.60;99.90
18446;DHT22;9352;50.888;4.466;2022-10-22T08:51:54;17.50;99.90
18446;DHT22;9352;50.888;4.466;2022-10-22T08:54:27;17.50;99.90
18446;DHT22;9352;50.888;4.466;2022-10-22T08:57:15;17.40;99.90
18446;DHT22;9352;50.888;4.466;2022-10-22T08:59:47;17.50;99.90
18446;DHT22;9352;50.888;4.466;2022-10-22T09:02:29;17.60;99.90
18446;DHT22;9352;50.888;4.466;2022-10-22T09:05:11;17.60;99.90
18446;DHT22;9352;50.888;4.466;2022-10-22T09:07:42;17.60;99.90
18446;DHT22;9352;50.888;4.466;2022-10-22T09:10:13;17.60;99.90
18446;DHT22;9352;50.888;4.466;2022-10-22T09:12:40;17.70;99.90
18446;DHT22;9352;50.888;4.466;2022-10-22T09:15:13;17.80;99.90
18446;DHT22;9352;50.888;4.466;2022-10-22T09:17:49;17.80;99.90
18446;DHT22;9352;50.888;4.466;2022-10-22T09:20:23;18.00;99.90
18446;DHT22;9352;50.888;4.466;2022-10-22T09:23:00;18.00;99.90
18446;DHT22;9352;50.888;4.466;2022-10-22T09:25:32;18.10;99.90
18446;DHT22;9352;50.888;4.466;2022-10-22T09:28:02;18.20;99.90
18446;DHT22;9352;50.888;4.466;2022-10-22T09:30:32;18.20;99.90
18446;DHT22;9352;50.888;4.466;2022-10-22T09:33:06;18.10;99.90
18446;DHT22;9352;50.888;4.466;2022-10-22T09:35:44;18.00;99.90
18446;DHT22;9352;50.888;4.466;2022-10-22T09:38:13;17.90;99.90
18446;DHT22;9352;50.888;4.466;2022-10-22T09:40:45;18.00;99.90
18446;DHT22;9352;50.888;4.466;2022-10-22T09:43:14;18.00;99.90
18446;DHT22;9352;50.888;4.466;2022-10-22T09:45:42;18.00;99.90
18446;DHT22;9352;50.888;4.466;2022-10-22T09:48:17;18.00;99.90
18446;DHT22;9352;50.888;4.466;2022-10-22T09:50:48;17.90;99.90
18446;DHT22;9352;50.888;4.466;2022-10-22T09:53:22;17.90;99.90
18446;DHT22;9352;50.888;4.466;2022-10-22T09:55:54;18.00;99.90
18446;DHT22;9352;50.888;4.466;2022-10-22T09:58:21;18.00;99.90
18446;DHT22;9352;50.888;4.466;2022-10-22T10:00:52;18.00;99.90
18446;DHT22;9352;50.888;4.466;2022-10-22T10:03:22;18.20;99.90
18446;DHT22;9352;50.888;4.466;2022-10-22T10:05:53;18.30;99.90
18446;DHT22;9352;50.888;4.466;2022-10-22T10:08:21;18.20;99.90
18446;DHT22;9352;50.888;4.466;2022-10-22T10:10:51;18.30;99.90
18446;DHT22;9352;50.888;4.466;2022-10-22T10:13:37;18.30;99.90
18446;DHT22;9352;50.888;4.466;2022-10-22T10:16:12;18.30;99.90
18446;DHT22;9352;50.888;4.466;2022-10-22T10:18:52;18.30;99.90
18446;DHT22;9352;50.888;4.466;2022-10-22T10:21:28;18.20;99.90
18446;DHT22;9352;50.888;4.466;2022-10-22T10:24:01;18.10;99.90
18446;DHT22;9352;50.888;4.466;2022-10-22T10:26:34;18.10;99.90
18446;DHT22;9352;50.888;4.466;2022-10-22T10:29:12;18.10;99.90
18446;DHT22;9352;50.888;4.466;2022-10-22T10:31:48;18.20;99.90
18446;DHT22;9352;50.888;4.466;2022-10-22T10:34:25;18.10;99.90
18446;DHT22;9352;50.888;4.466;2022-10-22T10:37:03;18.10;99.90
18446;DHT22;9352;50.888;4.466;2022-10-22T10:39:38;18.20;99.90
18446;DHT22;9352;50.888;4.466;2022-10-22T10:42:14;18.40;99.90
18446;DHT22;9352;50.888;4.466;2022-10-22T10:45:04;18.60;99.90
18446;DHT22;9352;50.888;4.466;2022-10-22T10:47:55;18.80;99.90
18446;DHT22;9352;50.888;4.466;2022-10-22T10:50:30;18.90;99.90
18446;DHT22;9352;50.888;4.466;2022-10-22T10:53:12;19.00;99.90
18446;DHT22;9352;50.888;4.466;2022-10-22T10:55:48;19.20;99.90
18446;DHT22;9352;50.888;4.466;2022-10-22T10:58:20;19.40;99.90
18446;DHT22;9352;50.888;4.466;2022-10-22T11:00:54;19.50;99.90
18446;DHT22;9352;50.888;4.466;2022-10-22T11:03:33;19.60;99.90
18446;DHT22;9352;50.888;4.466;2022-10-22T11:06:08;19.60;99.90
18446;DHT22;9352;50.888;4.466;2022-10-22T11:08:40;19.70;99.90
18446;DHT22;9352;50.888;4.466;2022-10-22T11:11:14;19.70;99.90
18446;DHT22;9352;50.888;4.466;2022-10-22T11:13:46;19.60;99.90
18446;DHT22;9352;50.888;4.466;2022-10-22T11:16:19;19.60;99.90
18446;DHT22;9352;50.888;4.466;2022-10-22T11:18:51;19.70;99.90
18446;DHT22;9352;50.888;4.466;2022-10-22T11:21:26;19.90;99.90
18446;DHT22;9352;50.888;4.466;2022-10-22T11:24:03;19.90;99.90
18446;DHT22;9352;50.888;4.466;2022-10-22T11:26:38;19.80;99.90
18446;DHT22;9352;50.888;4.466;2022-10-22T11:29:12;19.90;99.90
18446;DHT22;9352;50.888;4.466;2022-10-22T11:31:40;19.90;99.90
18446;DHT22;9352;50.888;4.466;2022-10-22T11:34:14;20.10;99.90
18446;DHT22;9352;50.888;4.466;2022-10-22T11:36:44;20.10;99.90
18446;DHT22;9352;50.888;4.466;2022-10-22T11:52:40;20.30;99.90
18446;DHT22;9352;50.888;4.466;2022-10-22T11:55:29;21.10;99.90
18446;DHT22;9352;50.888;4.466;2022-10-22T11:57:58;21.00;99.90
18446;DHT22;9352;50.888;4.466;2022-10-22T12:00:34;20.80;99.90
18446;DHT22;9352;50.888;4.466;2022-10-22T12:03:15;20.70;99.90
18446;DHT22;9352;50.888;4.466;2022-10-22T12:05:43;20.70;99.90
18446;DHT22;9352;50.888;4.466;2022-10-22T12:08:29;20.60;99.90
18446;DHT22;9352;50.888;4.466;2022-10-22T12:11:02;20.70;99.90
18446;DHT22;9352;50.888;4.466;2022-10-22T12:13:31;20.80;99.90
18446;DHT22;9352;50.888;4.466;2022-10-22T12:16:01;20.70;99.90
18446;DHT22;9352;50.888;4.466;2022-10-22T12:18:34;20.80;99.90
18446;DHT22;9352;50.888;4.466;2022-10-22T12:21:05;20.70;99.90
18446;DHT22;9352;50.888;4.466;2022-10-22T12:23:37;20.80;99.90
18446;DHT22;9352;50.888;4.466;2022-10-22T12:26:04;20.70;99.90
18446;DHT22;9352;50.888;4.466;2022-10-22T12:28:38;20.60;99.90
18446;DHT22;9352;50.888;4.466;2022-10-22T12:31:05;20.60;99.90
18446;DHT22;9352;50.888;4.466;2022-10-22T12:33:32;20.60;99.90
18446;DHT22;9352;50.888;4.466;2022-10-22T12:35:59;20.60;99.90
18446;DHT22;9352;50.888;4.466;2022-10-22T12:38:28;20.60;99.90
18446;DHT22;9352;50.888;4.466;2022-10-22T12:40:57;20.50;99.90
18446;DHT22;9352;50.888;4.466;2022-10-22T12:43:26;20.40;99.90
18446;DHT22;9352;50.888;4.466;2022-10-22T12:45:54;20.40;99.90
18446;DHT22;9352;50.888;4.466;2022-10-22T12:48:24;20.50;99.90
18446;DHT22;9352;50.888;4.466;2022-10-22T12:50:54;20.50;99.90
18446;DHT22;9352;50.888;4.466;2022-10-22T12:53:23;20.70;99.90
18446;DHT22;9352;50.888;4.466;2022-10-22T12:55:53;20.80;99.90
18446;DHT22;9352;50.888;4.466;2022-10-22T12:58:25;20.60;99.90
18446;DHT22;9352;50.888;4.466;2022-10-22T13:00:54;20.60;99.90
18446;DHT22;9352;50.888;4.466;2022-10-22T13:03:28;20.50;99.90
18446;DHT22;9352;50.888;4.466;2022-10-22T13:05:55;20.60;99.90
18446;DHT22;9352;50.888;4.466;2022-10-22T13:08:26;20.40;99.90
18446;DHT22;9352;50.888;4.466;2022-10-22T13:10:54;20.50;99.90
18446;DHT22;9352;50.888;4.466;2022-10-22T13:13:40;20.40;99.90
18446;DHT22;9352;50.888;4.466;2022-10-22T13:16:16;20.50;99.90
18446;DHT22;9352;50.888;4.466;2022-10-22T13:18:44;20.40;99.90
18446;DHT22;9352;50.888;4.466;2022-10-22T13:21:28;20.50;99.90
18446;DHT22;9352;50.888;4.466;2022-10-22T13:23:57;20.70;99.90
18446;DHT22;9352;50.888;4.466;2022-10-22T13:26:30;20.90;99.90
18446;DHT22;9352;50.888;4.466;2022-10-22T13:29:00;20.90;99.90
18446;DHT22;9352;50.888;4.466;2022-10-22T13:31:29;20.70;99.90
18446;DHT22;9352;50.888;4.466;2022-10-22T13:34:00;20.60;99.90
18446;DHT22;9352;50.888;4.466;2022-10-22T13:36:31;20.60;99.90
18446;DHT22;9352;50.888;4.466;2022-10-22T13:38:58;20.60;99.90
18446;DHT22;9352;50.888;4.466;2022-10-22T13:41:26;20.80;99.90
18446;DHT22;9352;50.888;4.466;2022-10-22T13:43:55;20.80;99.90
18446;DHT22;9352;50.888;4.466;2022-10-22T13:46:24;20.70;99.90
18446;DHT22;9352;50.888;4.466;2022-10-22T13:48:53;20.90;99.90
18446;DHT22;9352;50.888;4.466;2022-10-22T13:51:23;20.90;99.90
18446;DHT22;9352;50.888;4.466;2022-10-22T13:53:52;20.90;99.90
18446;DHT22;9352;50.888;4.466;2022-10-22T13:56:20;20.90;99.90
18446;DHT22;9352;50.888;4.466;2022-10-22T13:58:49;20.90;99.90
18446;DHT22;9352;50.888;4.466;2022-10-22T14:04:46;20.80;99.90
18446;DHT22;9352;50.888;4.466;2022-10-22T14:07:14;20.80;99.90
18446;DHT22;9352;50.888;4.466;2022-10-22T14:09:42;20.80;99.90
18446;DHT22;9352;50.888;4.466;2022-10-22T14:12:11;20.90;99.90
18446;DHT22;9352;50.888;4.466;2022-10-22T14:14:38;20.80;99.90
18446;DHT22;9352;50.888;4.466;2022-10-22T14:17:07;20.70;99.90
18446;DHT22;9352;50.888;4.466;2022-10-22T14:19:35;20.70;99.90
18446;DHT22;9352;50.888;4.466;2022-10-22T14:22:03;20.80;99.90
18446;DHT22;9352;50.888;4.466;2022-10-22T14:24:30;20.80;99.90
18446;DHT22;9352;50.888;4.466;2022-10-22T14:26:57;20.70;99.90
18446;DHT22;9352;50.888;4.466;2022-10-22T14:29:24;20.70;99.90
18446;DHT22;9352;50.888;4.466;2022-10-22T14:31:51;20.60;99.90
18446;DHT22;9352;50.888;4.466;2022-10-22T14:34:18;20.70;99.90
18446;DHT22;9352;50.888;4.466;2022-10-22T14:36:45;20.60;99.90
18446;DHT22;9352;50.888;4.466;2022-10-22T14:39:13;20.70;99.90
18446;DHT22;9352;50.888;4.466;2022-10-22T14:41:42;20.60;99.90
18446;DHT22;9352;50.888;4.466;2022-10-22T14:44:10;20.50;99.90
18446;DHT22;9352;50.888;4.466;2022-10-22T14:46:38;20.60;99.90
18446;DHT22;9352;50.888;4.466;2022-10-22T14:49:07;20.60;99.90
18446;DHT22;9352;50.888;4.466;2022-10-22T14:51:33;20.60;99.90
18446;DHT22;9352;50.888;4.466;2022-10-22T14:54:00;20.60;99.90
18446;DHT22;9352;50.888;4.466;2022-10-22T14:56:29;20.70;99.90
18446;DHT22;9352;50.888;4.466;2022-10-22T14:58:55;20.70;99.90
18446;DHT22;9352;50.888;4.466;2022-10-22T15:01:22;20.60;99.90
18446;DHT22;9352;50.888;4.466;2022-10-22T15:03:49;20.50;99.90
18446;DHT22;9352;50.888;4.466;2022-10-22T15:06:16;20.40;99.90
18446;DHT22;9352;50.888;4.466;2022-10-22T15:08:43;20.30;99.90
18446;DHT22;9352;50.888;4.466;2022-10-22T15:11:11;20.20;99.90
18446;DHT22;9352;50.888;4.466;2022-10-22T15:13:39;20.10;99.90
18446;DHT22;9352;50.888;4.466;2022-10-22T15:16:08;20.00;99.90
18446;DHT22;9352;50.888;4.466;2022-10-22T15:18:36;19.90;99.90
18446;DHT22;9352;50.888;4.466;2022-10-22T15:21:05;19.90;99.90
18446;DHT22;9352;50.888;4.466;2022-10-22T15:23:32;19.70;99.90
18446;DHT22;9352;50.888;4.466;2022-10-22T15:26:06;19.70;99.90
18446;DHT22;9352;50.888;4.466;2022-10-22T15:28:33;19.60;99.90
18446;DHT22;9352;50.888;4.466;2022-10-22T15:31:03;19.60;99.90
18446;DHT22;9352;50.888;4.466;2022-10-22T15:33:30;19.60;99.90
18446;DHT22;9352;50.888;4.466;2022-10-22T15:35:57;19.60;99.90
18446;DHT22;9352;50.888;4.466;2022-10-22T15:38:26;19.70;99.90
18446;DHT22;9352;50.888;4.466;2022-10-22T15:40:59;19.70;99.90
18446;DHT22;9352;50.888;4.466;2022-10-22T15:43:27;19.70;99.90
18446;DHT22;9352;50.888;4.466;2022-10-22T15:46:09;19.70;99.90
18446;DHT22;9352;50.888;4.466;2022-10-22T15:48:37;19.60;99.90
18446;DHT22;9352;50.888;4.466;2022-10-22T15:51:09;19.50;99.90
18446;DHT22;9352;50.888;4.466;2022-10-22T15:53:36;19.40;99.90
18446;DHT22;9352;50.888;4.466;2022-10-22T15:56:03;19.30;99.90
18446;DHT22;9352;50.888;4.466;2022-10-22T15:58:30;19.30;99.90
18446;DHT22;9352;50.888;4.466;2022-10-22T16:01:03;19.20;99.90
18446;DHT22;9352;50.888;4.466;2022-10-22T16:03:32;19.10;99.90
18446;DHT22;9352;50.888;4.466;2022-10-22T16:06:00;19.10;99.90
18446;DHT22;9352;50.888;4.466;2022-10-22T16:08:27;18.90;99.90
18446;DHT22;9352;50.888;4.466;2022-10-22T16:10:54;18.90;99.90
18446;DHT22;9352;50.888;4.466;2022-10-22T16:13:21;18.70;99.90
18446;DHT22;9352;50.888;4.466;2022-10-22T16:15:49;18.70;99.90
18446;DHT22;9352;50.888;4.466;2022-10-22T16:18:16;18.50;99.90
18446;DHT22;9352;50.888;4.466;2022-10-22T16:20:45;18.40;99.90